sensor_id;sensor_type;location;lat;lon;timestamp;pressure;altitude;pressure_sealevel;temperature;humidity
2841;BME280;53423;49.224;12.074;2022-12-26T00:01:09;97809.63;;;7.56;71.14
2841;BME280;53423;49.224;12.074;2022-12-26T00:03:38;97810.16;;;7.59;71.14
2841;BME280;53423;49.224;12.074;2022-12-26T00:06:12;97811.00;;;7.60;71.40
2841;BME280;53423;49.224;12.074;2022-12-26T00:08:41;97803.31;;;7.58;71.94
2841;BME280;53423;49.224;12.074;2022-12-26T00:11:10;97804.16;;;7.59;71.56
2841;BME280;53423;49.224;12.074;2022-12-26T00:13:38;97807.69;;;7.58;72.16
2841;BME280;53423;49.224;12.074;2022-12-26T00:16:08;97805.38;;;7.55;72.26
2841;BME280;53423;49.224;12.074;2022-12-26T00:18:37;97802.22;;;7.51;73.57
2841;BME280;53423;49.224;12.074;2022-12-26T00:21:05;97815.53;;;7.58;72.98
2841;BME280;53423;49.224;12.074;2022-12-26T00:23:36;97826.50;;;7.71;73.12
2841;BME280;53423;49.224;12.074;2022-12-26T00:26:06;97813.53;;;7.79;72.95
2841;BME280;53423;49.224;12.074;2022-12-26T00:28:34;97816.78;;;7.91;72.03
2841;BME280;53423;49.224;12.074;2022-12-26T00:31:04;97815.38;;;7.96;71.81
2841;BME280;53423;49.224;12.074;2022-12-26T00:33:32;97804.56;;;7.91;71.59
2841;BME280;53423;49.224;12.074;2022-12-26T00:36:01;97812.28;;;7.83;71.15
2841;BME280;53423;49.224;12.074;2022-12-26T00:38:30;97807.34;;;7.80;71.97
2841;BME280;53423;49.224;12.074;2022-12-26T00:41:00;97809.47;;;7.67;72.78
2841;BME280;53423;49.224;12.074;2022-12-26T00:43:27;97813.25;;;7.82;72.62
2841;BME280;53423;49.224;12.074;2022-12-26T00:45:56;97813.44;;;7.98;72.29
2841;BME280;53423;49.224;12.074;2022-12-26T00:48:24;97815.16;;;7.80;72.58
2841;BME280;53423;49.224;12.074;2022-12-26T00:50:52;97816.53;;;7.84;72.28
2841;BME280;53423;49.224;12.074;2022-12-26T00:53:20;97825.59;;;7.80;72.10
2841;BME280;53423;49.224;12.074;2022-12-26T00:55:49;97820.78;;;7.85;72.43
2841;BME280;53423;49.224;12.074;2022-12-26T00:58:19;97825.16;;;7.94;72.71
2841;BME280;53423;49.224;12.074;2022-12-26T01:00:48;97826.44;;;8.08;72.26
2841;BME280;53423;49.224;12.074;2022-12-26T01:03:17;97813.34;;;8.17;71.69
2841;BME280;53423;49.224;12.074;2022-12-26T01:05:47;97825.03;;;8.13;71.87
2841;BME280;53423;49.224;12.074;2022-12-26T01:08:15;97833.00;;;8.12;71.62
2841;BME280;53423;49.224;12.074;2022-12-26T01:10:50;97840.25;;;7.91;71.96
2841;BME280;53423;49.224;12.074;2022-12-26T01:13:19;97848.63;;;7.94;71.94
2841;BME280;53423;49.224;12.074;2022-12-26T01:15:48;97839.69;;;7.97;72.34
2841;BME280;53423;49.224;12.074;2022-12-26T01:18:16;97838.88;;;7.96;71.75
2841;BME280;53423;49.224;12.074;2022-12-26T01:20:44;97842.97;;;7.99;71.41
2841;BME280;53423;49.224;12.074;2022-12-26T01:23:13;97851.94;;;7.96;71.84
2841;BME280;53423;49.224;12.074;2022-12-26T01:25:41;97849.31;;;7.96;71.75
2841;BME280;53423;49.224;12.074;2022-12-26T01:28:30;97862.75;;;8.01;71.47
2841;BME280;53423;49.224;12.074;2022-12-26T01:31:00;97854.88;;;8.11;71.36
2841;BME280;53423;49.224;12.074;2022-12-26T01:33:29;97856.50;;;8.12;72.17
2841;BME280;53423;49.224;12.074;2022-12-26T01:35:57;97848.91;;;8.18;71.90
2841;BME280;53423;49.224;12.074;2022-12-26T01:38:25;97844.22;;;8.22;72.10
2841;BME280;53423;49.224;12.074;2022-12-26T01:40:53;97839.28;;;8.28;71.65
2841;BME280;53423;49.224;12.074;2022-12-26T01:43:49;97834.88;;;8.29;71.87
2841;BME280;53423;49.224;12.074;2022-12-26T01:46:20;97843.16;;;8.24;71.68
2841;BME280;53423;49.224;12.074;2022-12-26T01:48:51;97839.22;;;8.11;72.18
2841;BME280;53423;49.224;12.074;2022-12-26T01:51:20;97846.22;;;8.10;72.09
2841;BME280;53423;49.224;12.074;2022-12-26T01:53:53;97850.19;;;8.14;71.89
2841;BME280;53423;49.224;12.074;2022-12-26T01:56:44;97849.81;;;8.00;72.16
2841;BME280;53423;49.224;12.074;2022-12-26T01:59:18;97844.59;;;8.00;72.10
2841;BME280;53423;49.224;12.074;2022-12-26T02:01:50;97848.44;;;8.05;71.94
2841;BME280;53423;49.224;12.074;2022-12-26T02:04:24;97842.91;;;8.08;72.14
2841;BME280;53423;49.224;12.074;2022-12-26T02:07:11;97849.94;;;8.08;72.07
2841;BME280;53423;49.224;12.074;2022-12-26T02:09:39;97854.19;;;8.09;71.91
2841;BME280;53423;49.224;12.074;2022-12-26T02:12:10;97855.03;;;8.09;72.36
2841;BME280;53423;49.224;12.074;2022-12-26T02:15:04;97840.69;;;8.13;71.77
2841;BME280;53423;49.224;12.074;2022-12-26T02:17:33;97844.81;;;8.16;71.91
2841;BME280;53423;49.224;12.074;2022-12-26T02:20:05;97841.38;;;8.15;71.37
2841;BME280;53423;49.224;12.074;2022-12-26T02:23:07;97836.84;;;8.17;72.36
2841;BME280;53423;49.224;12.074;2022-12-26T02:25:58;97831.53;;;8.09;72.09
2841;BME280;53423;49.224;12.074;2022-12-26T02:31:48;97821.72;;;8.21;72.67
2841;BME280;53423;49.224;12.074;2022-12-26T02:34:21;97822.13;;;8.26;72.33
2841;BME280;53423;49.224;12.074;2022-12-26T02:37:05;97828.31;;;8.25;72.05
2841;BME280;53423;49.224;12.074;2022-12-26T02:39:52;97836.53;;;8.30;72.19
2841;BME280;53423;49.224;12.074;2022-12-26T02:42:28;97825.56;;;8.26;72.16
2841;BME280;53423;49.224;12.074;2022-12-26T02:45:05;97811.38;;;8.29;72.27
2841;BME280;53423;49.224;12.074;2022-12-26T02:48:01;97808.22;;;8.25;71.85
2841;BME280;53423;49.224;12.074;2022-12-26T02:50:38;97803.00;;;8.25;72.08
2841;BME280;53423;49.224;12.074;2022-12-26T02:53:31;97802.22;;;8.25;72.04
2841;BME280;53423;49.224;12.074;2022-12-26T02:56:26;97809.22;;;8.24;72.08
2841;BME280;53423;49.224;12.074;2022-12-26T02:59:20;97805.47;;;8.27;71.63
2841;BME280;53423;49.224;12.074;2022-12-26T03:02:25;97808.50;;;8.22;72.05
2841;BME280;53423;49.224;12.074;2022-12-26T03:05:17;97805.88;;;8.22;71.83
2841;BME280;53423;49.224;12.074;2022-12-26T03:08:08;97803.25;;;8.32;71.54
2841;BME280;53423;49.224;12.074;2022-12-26T03:10:57;97784.00;;;8.33;70.93
2841;BME280;53423;49.224;12.074;2022-12-26T03:13:44;97798.81;;;8.15;71.88
2841;BME280;53423;49.224;12.074;2022-12-26T03:16:12;97805.81;;;8.14;72.02
2841;BME280;53423;49.224;12.074;2022-12-26T03:19:02;97803.53;;;8.02;72.40
2841;BME280;53423;49.224;12.074;2022-12-26T03:21:38;97822.53;;;8.21;72.12
2841;BME280;53423;49.224;12.074;2022-12-26T03:24:09;97814.75;;;8.12;71.49
2841;BME280;53423;49.224;12.074;2022-12-26T03:26:41;97821.09;;;8.09;71.72
2841;BME280;53423;49.224;12.074;2022-12-26T03:29:14;97813.97;;;8.02;71.81
2841;BME280;53423;49.224;12.074;2022-12-26T03:32:02;97808.84;;;8.10;71.22
2841;BME280;53423;49.224;12.074;2022-12-26T03:34:31;97817.78;;;8.07;71.44
2841;BME280;53423;49.224;12.074;2022-12-26T03:37:26;97809.88;;;7.99;71.72
2841;BME280;53423;49.224;12.074;2022-12-26T03:43:48;97819.16;;;7.75;71.63
2841;BME280;53423;49.224;12.074;2022-12-26T03:46:42;97812.72;;;7.79;71.81
2841;BME280;53423;49.224;12.074;2022-12-26T03:49:34;97806.25;;;7.83;72.72
2841;BME280;53423;49.224;12.074;2022-12-26T03:52:29;97804.13;;;7.96;72.50
2841;BME280;53423;49.224;12.074;2022-12-26T03:55:24;97807.81;;;8.03;72.50
2841;BME280;53423;49.224;12.074;2022-12-26T03:58:14;97818.50;;;8.00;72.26
2841;BME280;53423;49.224;12.074;2022-12-26T04:01:05;97819.28;;;8.10;72.82
2841;BME280;53423;49.224;12.074;2022-12-26T04:03:53;97818.81;;;8.24;71.95
2841;BME280;53423;49.224;12.074;2022-12-26T04:06:50;97820.63;;;8.14;72.66
2841;BME280;53423;49.224;12.074;2022-12-26T04:09:41;97821.63;;;8.13;72.83
2841;BME280;53423;49.224;12.074;2022-12-26T04:12:28;97836.69;;;8.19;72.53
2841;BME280;53423;49.224;12.074;2022-12-26T04:15:24;97834.88;;;8.29;72.21
2841;BME280;53423;49.224;12.074;2022-12-26T04:18:18;97841.50;;;8.23;72.25
2841;BME280;53423;49.224;12.074;2022-12-26T04:21:10;97838.47;;;8.28;72.15
2841;BME280;53423;49.224;12.074;2022-12-26T04:23:57;97839.81;;;8.32;72.04
2841;BME280;53423;49.224;12.074;2022-12-26T04:26:50;97834.88;;;8.29;72.29
2841;BME280;53423;49.224;12.074;2022-12-26T04:29:37;97834.34;;;8.25;72.11
2841;BME280;53423;49.224;12.074;2022-12-26T04:32:28;97837.34;;;8.30;71.87
2841;BME280;53423;49.224;12.074;2022-12-26T04:35:20;97832.13;;;8.30;72.09
2841;BME280;53423;49.224;12.074;2022-12-26T04:38:06;97841.09;;;8.28;71.65
2841;BME280;53423;49.224;12.074;2022-12-26T04:40:56;97834.56;;;8.32;71.58
2841;BME280;53423;49.224;12.074;2022-12-26T04:43:46;97843.03;;;8.43;71.68
2841;BME280;53423;49.224;12.074;2022-12-26T04:46:34;97843.94;;;8.52;71.35
2841;BME280;53423;49.224;12.074;2022-12-26T04:49:04;97842.38;;;8.59;71.31
2841;BME280;53423;49.224;12.074;2022-12-26T04:51:50;97842.69;;;8.56;71.43
2841;BME280;53423;49.224;12.074;2022-12-26T04:54:18;97840.44;;;8.61;71.33
2841;BME280;53423;49.224;12.074;2022-12-26T04:56:46;97848.28;;;8.61;71.25
2841;BME280;53423;49.224;12.074;2022-12-26T04:59:16;97842.06;;;8.44;72.06
2841;BME280;53423;49.224;12.074;2022-12-26T05:01:44;97830.34;;;8.48;71.94
2841;BME280;53423;49.224;12.074;2022-12-26T05:04:29;97827.25;;;8.62;71.63
2841;BME280;53423;49.224;12.074;2022-12-26T05:07:17;97831.72;;;8.70;71.08
2841;BME280;53423;49.224;12.074;2022-12-26T05:10:06;97822.22;;;8.69;71.71
2841;BME280;53423;49.224;12.074;2022-12-26T05:12:34;97820.28;;;8.71;71.46
2841;BME280;53423;49.224;12.074;2022-12-26T05:15:04;97808.78;;;8.64;71.49
2841;BME280;53423;49.224;12.074;2022-12-26T05:17:32;97809.47;;;8.66;71.65
2841;BME280;53423;49.224;12.074;2022-12-26T05:20:18;97812.59;;;8.69;71.29
2841;BME280;53423;49.224;12.074;2022-12-26T05:23:03;97816.06;;;8.70;71.64
2841;BME280;53423;49.224;12.074;2022-12-26T05:25:49;97819.09;;;8.65;71.28
2841;BME280;53423;49.224;12.074;2022-12-26T05:28:34;97818.00;;;8.68;71.52
2841;BME280;53423;49.224;12.074;2022-12-26T05:31:11;97825.38;;;8.72;71.17
2841;BME280;53423;49.224;12.074;2022-12-26T05:33:39;97828.13;;;8.71;71.69
2841;BME280;53423;49.224;12.074;2022-12-26T05:36:28;97830.06;;;8.69;70.92
2841;BME280;53423;49.224;12.074;2022-12-26T05:38:57;97833.88;;;8.57;71.83
2841;BME280;53423;49.224;12.074;2022-12-26T05:41:24;97844.41;;;8.65;71.87
2841;BME280;53423;49.224;12.074;2022-12-26T05:43:52;97846.88;;;8.66;71.56
2841;BME280;53423;49.224;12.074;2022-12-26T05:46:22;97842.59;;;8.65;71.14
2841;BME280;53423;49.224;12.074;2022-12-26T05:48:50;97835.53;;;8.58;71.65
2841;BME280;53423;49.224;12.074;2022-12-26T05:51:18;97840.22;;;8.54;72.36
2841;BME280;53423;49.224;12.074;2022-12-26T05:53:46;97836.34;;;8.58;71.69
2841;BME280;53423;49.224;12.074;2022-12-26T05:56:16;97841.69;;;8.57;72.13
2841;BME280;53423;49.224;12.074;2022-12-26T05:58:44;97833.97;;;8.65;71.24
2841;BME280;53423;49.224;12.074;2022-12-26T06:01:14;97836.97;;;8.70;71.70
2841;BME280;53423;49.224;12.074;2022-12-26T06:03:46;97838.22;;;8.66;71.96
2841;BME280;53423;49.224;12.074;2022-12-26T06:06:15;97842.00;;;8.54;72.11
2841;BME280;53423;49.224;12.074;2022-12-26T06:08:44;97845.91;;;8.67;71.65
2841;BME280;53423;49.224;12.074;2022-12-26T06:11:14;97838.38;;;8.64;71.57
2841;BME280;53423;49.224;12.074;2022-12-26T06:13:42;97828.91;;;8.63;71.65
2841;BME280;53423;49.224;12.074;2022-12-26T06:16:12;97840.81;;;8.66;71.72
2841;BME280;53423;49.224;12.074;2022-12-26T06:18:41;97836.06;;;8.61;71.23
2841;BME280;53423;49.224;12.074;2022-12-26T06:21:12;97834.84;;;8.56;72.19
2841;BME280;53423;49.224;12.074;2022-12-26T06:23:40;97840.22;;;8.54;71.93
2841;BME280;53423;49.224;12.074;2022-12-26T06:26:09;97846.28;;;8.55;71.69
2841;BME280;53423;49.224;12.074;2022-12-26T06:28:38;97846.84;;;8.49;72.23
2841;BME280;53423;49.224;12.074;2022-12-26T06:31:09;97852.44;;;8.54;72.07
2841;BME280;53423;49.224;12.074;2022-12-26T06:33:37;97846.69;;;8.50;72.14
2841;BME280;53423;49.224;12.074;2022-12-26T06:36:08;97852.44;;;8.54;72.46
2841;BME280;53423;49.224;12.074;2022-12-26T06:38:37;97846.16;;;8.47;72.49
2841;BME280;53423;49.224;12.074;2022-12-26T06:41:07;97834.91;;;8.46;72.72
2841;BME280;53423;49.224;12.074;2022-12-26T06:43:35;97830.28;;;8.40;72.95
2841;BME280;53423;49.224;12.074;2022-12-26T06:46:05;97824.84;;;8.51;72.83
2841;BME280;53423;49.224;12.074;2022-12-26T06:48:34;97823.72;;;8.36;73.23
2841;BME280;53423;49.224;12.074;2022-12-26T06:51:08;97818.03;;;8.14;73.80
2841;BME280;53423;49.224;12.074;2022-12-26T06:53:38;97825.00;;;8.23;73.40
2841;BME280;53423;49.224;12.074;2022-12-26T06:56:10;97830.38;;;8.21;73.82
2841;BME280;53423;49.224;12.074;2022-12-26T06:58:39;97835.56;;;8.31;73.61
2841;BME280;53423;49.224;12.074;2022-12-26T07:01:08;97831.81;;;8.33;73.38
2841;BME280;53423;49.224;12.074;2022-12-26T07:03:37;97822.06;;;8.35;73.20
2841;BME280;53423;49.224;12.074;2022-12-26T07:06:20;97816.47;;;8.21;74.05
2841;BME280;53423;49.224;12.074;2022-12-26T07:08:51;97815.91;;;8.27;73.93
2841;BME280;53423;49.224;12.074;2022-12-26T07:11:21;97819.44;;;8.35;73.74
2841;BME280;53423;49.224;12.074;2022-12-26T07:13:49;97809.97;;;8.52;73.04
2841;BME280;53423;49.224;12.074;2022-12-26T07:16:17;97813.28;;;8.54;73.26
2841;BME280;53423;49.224;12.074;2022-12-26T07:18:45;97809.19;;;8.51;72.97
2841;BME280;53423;49.224;12.074;2022-12-26T07:21:14;97816.03;;;8.52;72.95
2841;BME280;53423;49.224;12.074;2022-12-26T07:23:43;97820.53;;;8.60;72.63
2841;BME280;53423;49.224;12.074;2022-12-26T07:26:12;97833.38;;;8.71;72.70
2841;BME280;53423;49.224;12.074;2022-12-26T07:28:40;97838.75;;;8.69;72.53
2841;BME280;53423;49.224;12.074;2022-12-26T07:31:08;97837.78;;;8.88;71.90
2841;BME280;53423;49.224;12.074;2022-12-26T07:33:42;97826.19;;;8.91;71.67
2841;BME280;53423;49.224;12.074;2022-12-26T07:36:10;97830.75;;;8.89;71.94
2841;BME280;53423;49.224;12.074;2022-12-26T07:38:38;97831.03;;;8.86;71.79
2841;BME280;53423;49.224;12.074;2022-12-26T07:41:06;97825.59;;;8.79;72.10
2841;BME280;53423;49.224;12.074;2022-12-26T07:43:49;97835.88;;;8.80;71.93
2841;BME280;53423;49.224;12.074;2022-12-26T07:46:17;97838.28;;;8.74;72.16
2841;BME280;53423;49.224;12.074;2022-12-26T07:48:45;97846.28;;;8.55;72.19
2841;BME280;53423;49.224;12.074;2022-12-26T07:51:13;97841.13;;;8.80;72.10
2841;BME280;53423;49.224;12.074;2022-12-26T07:53:42;97837.84;;;8.78;71.56
2841;BME280;53423;49.224;12.074;2022-12-26T07:56:10;97837.03;;;8.78;71.83
2841;BME280;53423;49.224;12.074;2022-12-26T07:58:37;97842.22;;;8.96;71.58
2841;BME280;53423;49.224;12.074;2022-12-26T08:01:07;97846.66;;;8.95;70.76
2841;BME280;53423;49.224;12.074;2022-12-26T08:03:35;97851.38;;;8.92;71.44
2841;BME280;53423;49.224;12.074;2022-12-26T08:06:03;97856.97;;;8.97;71.15
2841;BME280;53423;49.224;12.074;2022-12-26T08:08:31;97860.47;;;9.05;71.05
2841;BME280;53423;49.224;12.074;2022-12-26T08:11:00;97868.31;;;9.05;70.84
2841;BME280;53423;49.224;12.074;2022-12-26T08:13:28;97872.88;;;9.03;71.25
2841;BME280;53423;49.224;12.074;2022-12-26T08:15:57;97878.91;;;8.86;70.95
2841;BME280;53423;49.224;12.074;2022-12-26T08:18:27;97875.13;;;8.98;70.89
2841;BME280;53423;49.224;12.074;2022-12-26T08:20:56;97858.97;;;9.03;71.01
2841;BME280;53423;49.224;12.074;2022-12-26T08:23:24;97864.56;;;9.08;70.21
2841;BME280;53423;49.224;12.074;2022-12-26T08:25:52;97859.03;;;9.11;70.59
2841;BME280;53423;49.224;12.074;2022-12-26T08:28:20;97869.84;;;9.16;70.63
2841;BME280;53423;49.224;12.074;2022-12-26T08:30:49;97854.41;;;9.22;69.85
2841;BME280;53423;49.224;12.074;2022-12-26T08:33:17;97870.53;;;9.18;70.78
2841;BME280;53423;49.224;12.074;2022-12-26T08:35:46;97879.31;;;9.34;70.62
2841;BME280;53423;49.224;12.074;2022-12-26T08:38:14;97874.81;;;9.44;69.88
2841;BME280;53423;49.224;12.074;2022-12-26T08:40:42;97882.13;;;9.58;69.33
2841;BME280;53423;49.224;12.074;2022-12-26T08:43:11;97890.09;;;9.49;69.82
2841;BME280;53423;49.224;12.074;2022-12-26T08:45:59;97884.78;;;9.41;69.21
2841;BME280;53423;49.224;12.074;2022-12-26T08:48:28;97890.25;;;9.47;69.71
2841;BME280;53423;49.224;12.074;2022-12-26T08:51:00;97903.38;;;9.55;69.72
2841;BME280;53423;49.224;12.074;2022-12-26T08:53:29;97899.09;;;9.54;69.27
2841;BME280;53423;49.224;12.074;2022-12-26T08:55:58;97899.09;;;9.54;69.15
2841;BME280;53423;49.224;12.074;2022-12-26T08:58:26;97898.66;;;9.59;69.41
2841;BME280;53423;49.224;12.074;2022-12-26T09:00:55;97884.53;;;9.52;69.38
2841;BME280;53423;49.224;12.074;2022-12-26T09:03:22;97881.19;;;9.42;70.47
2841;BME280;53423;49.224;12.074;2022-12-26T09:05:51;97889.06;;;9.42;69.99
2841;BME280;53423;49.224;12.074;2022-12-26T09:08:20;97887.78;;;9.46;69.83
2841;BME280;53423;49.224;12.074;2022-12-26T09:10:48;97873.88;;;9.45;69.90
2841;BME280;53423;49.224;12.074;2022-12-26T09:13:16;97877.97;;;9.48;70.14
2841;BME280;53423;49.224;12.074;2022-12-26T09:15:45;97876.22;;;9.56;69.65
2841;BME280;53423;49.224;12.074;2022-12-26T09:18:13;97874.59;;;9.55;69.82
2841;BME280;53423;49.224;12.074;2022-12-26T09:20:41;97874.66;;;9.63;68.95
2841;BME280;53423;49.224;12.074;2022-12-26T09:23:09;97867.34;;;9.75;69.16
2841;BME280;53423;49.224;12.074;2022-12-26T09:25:38;97863.47;;;9.53;69.54
2841;BME280;53423;49.224;12.074;2022-12-26T09:28:06;97881.22;;;9.67;69.33
2841;BME280;53423;49.224;12.074;2022-12-26T09:30:35;97874.38;;;9.74;68.90
2841;BME280;53423;49.224;12.074;2022-12-26T09:33:04;97882.66;;;9.87;68.67
2841;BME280;53423;49.224;12.074;2022-12-26T09:35:38;97879.84;;;9.81;68.86
2841;BME280;53423;49.224;12.074;2022-12-26T09:38:07;97877.06;;;9.82;69.14
2841;BME280;53423;49.224;12.074;2022-12-26T09:40:45;97880.28;;;9.76;69.31
2841;BME280;53423;49.224;12.074;2022-12-26T09:43:22;97881.00;;;9.86;68.92
2841;BME280;53423;49.224;12.074;2022-12-26T09:45:58;97891.66;;;9.93;68.92
2841;BME280;53423;49.224;12.074;2022-12-26T09:48:36;97886.56;;;9.83;70.03
2841;BME280;53423;49.224;12.074;2022-12-26T09:51:08;97907.09;;;9.70;70.47
2841;BME280;53423;49.224;12.074;2022-12-26T09:53:40;97888.63;;;9.54;70.63
2841;BME280;53423;49.224;12.074;2022-12-26T09:56:14;97898.16;;;9.38;71.94
2841;BME280;53423;49.224;12.074;2022-12-26T09:59:06;97891.44;;;9.35;71.38
2841;BME280;53423;49.224;12.074;2022-12-26T10:01:39;97892.41;;;9.34;71.85
2841;BME280;53423;49.224;12.074;2022-12-26T10:04:16;97891.16;;;9.38;72.03
2841;BME280;53423;49.224;12.074;2022-12-26T10:07:01;97885.59;;;9.41;71.98
2841;BME280;53423;49.224;12.074;2022-12-26T10:09:48;97878.69;;;9.32;72.28
2841;BME280;53423;49.224;12.074;2022-12-26T10:12:33;97881.97;;;9.17;72.92
2841;BME280;53423;49.224;12.074;2022-12-26T10:15:11;97885.13;;;9.03;74.33
2841;BME280;53423;49.224;12.074;2022-12-26T10:17:45;97883.84;;;9.07;74.42
2841;BME280;53423;49.224;12.074;2022-12-26T10:20:22;97872.19;;;9.01;74.86
2841;BME280;53423;49.224;12.074;2022-12-26T10:25:52;97875.56;;;9.11;74.49
2841;BME280;53423;49.224;12.074;2022-12-26T10:28:28;97870.94;;;9.05;75.14
2841;BME280;53423;49.224;12.074;2022-12-26T10:31:01;97861.94;;;9.08;74.82
2841;BME280;53423;49.224;12.074;2022-12-26T10:33:37;97864.56;;;9.08;75.52
2841;BME280;53423;49.224;12.074;2022-12-26T10:36:14;97863.41;;;9.02;75.80
2841;BME280;53423;49.224;12.074;2022-12-26T10:38:44;97870.19;;;8.95;76.17
2841;BME280;53423;49.224;12.074;2022-12-26T10:41:19;97853.75;;;9.03;76.18
2841;BME280;53423;49.224;12.074;2022-12-26T10:43:51;97869.59;;;9.19;75.36
2841;BME280;53423;49.224;12.074;2022-12-26T10:46:42;97865.38;;;9.26;75.19
2841;BME280;53423;49.224;12.074;2022-12-26T10:49:17;97867.97;;;9.26;74.97
2841;BME280;53423;49.224;12.074;2022-12-26T10:51:47;97865.72;;;9.31;75.18
2841;BME280;53423;49.224;12.074;2022-12-26T10:54:16;97853.47;;;9.31;75.05
2841;BME280;53423;49.224;12.074;2022-12-26T10:56:47;97854.53;;;9.38;74.90
2841;BME280;53423;49.224;12.074;2022-12-26T10:59:19;97859.50;;;9.49;74.97
2841;BME280;53423;49.224;12.074;2022-12-26T11:01:48;97858.59;;;9.58;74.71
2841;BME280;53423;49.224;12.074;2022-12-26T11:04:19;97862.22;;;9.65;74.42
2841;BME280;53423;49.224;12.074;2022-12-26T11:07:10;97860.56;;;9.64;74.92
2841;BME280;53423;49.224;12.074;2022-12-26T11:09:39;97851.09;;;9.63;74.39
2841;BME280;53423;49.224;12.074;2022-12-26T11:12:18;97858.91;;;9.55;74.29
2841;BME280;53423;49.224;12.074;2022-12-26T11:14:49;97854.56;;;9.46;75.66
2841;BME280;53423;49.224;12.074;2022-12-26T11:17:25;97861.66;;;9.54;74.94
2841;BME280;53423;49.224;12.074;2022-12-26T11:20:27;97863.63;;;9.52;75.31
2841;BME280;53423;49.224;12.074;2022-12-26T11:23:17;97874.97;;;9.60;75.01
2841;BME280;53423;49.224;12.074;2022-12-26T11:25:48;97893.31;;;9.68;74.91
2841;BME280;53423;49.224;12.074;2022-12-26T11:28:30;97892.06;;;9.72;74.79
2841;BME280;53423;49.224;12.074;2022-12-26T11:31:03;97890.97;;;9.57;75.64
2841;BME280;53423;49.224;12.074;2022-12-26T11:33:34;97891.38;;;9.70;75.07
2841;BME280;53423;49.224;12.074;2022-12-26T11:36:08;97893.16;;;9.70;74.96
2841;BME280;53423;49.224;12.074;2022-12-26T11:38:46;97899.13;;;9.80;74.51
2841;BME280;53423;49.224;12.074;2022-12-26T11:41:17;97897.19;;;9.82;74.90
2841;BME280;53423;49.224;12.074;2022-12-26T11:44:18;97919.50;;;9.68;74.67
2841;BME280;53423;49.224;12.074;2022-12-26T11:46:53;97935.84;;;9.45;75.92
2841;BME280;53423;49.224;12.074;2022-12-26T11:49:25;97942.31;;;9.58;76.33
2841;BME280;53423;49.224;12.074;2022-12-26T11:51:56;97948.59;;;9.48;76.01
2841;BME280;53423;49.224;12.074;2022-12-26T11:54:37;97952.22;;;9.47;77.00
2841;BME280;53423;49.224;12.074;2022-12-26T11:57:19;97941.06;;;9.62;76.13
2841;BME280;53423;49.224;12.074;2022-12-26T11:59:48;97937.75;;;9.60;76.97
2841;BME280;53423;49.224;12.074;2022-12-26T12:02:27;97930.97;;;9.67;76.07
2841;BME280;53423;49.224;12.074;2022-12-26T12:05:00;97933.09;;;9.72;76.33
2841;BME280;53423;49.224;12.074;2022-12-26T12:13:59;97914.56;;;9.65;75.41
2841;BME280;53423;49.224;12.074;2022-12-26T12:16:37;97932.78;;;9.75;75.63
2841;BME280;53423;49.224;12.074;2022-12-26T12:19:19;97919.75;;;9.83;75.95
2841;BME280;53423;49.224;12.074;2022-12-26T12:21:59;97919.59;;;9.84;75.40
2841;BME280;53423;49.224;12.074;2022-12-26T12:24:38;97909.00;;;9.86;76.36
2841;BME280;53423;49.224;12.074;2022-12-26T12:27:15;97911.47;;;9.87;75.74
2841;BME280;53423;49.224;12.074;2022-12-26T12:29:57;97909.41;;;9.99;75.95
2841;BME280;53423;49.224;12.074;2022-12-26T12:32:32;97912.59;;;10.11;75.95
2841;BME280;53423;49.224;12.074;2022-12-26T12:35:28;97901.66;;;10.15;75.26
2841;BME280;53423;49.224;12.074;2022-12-26T12:38:13;97902.84;;;10.29;74.80
2841;BME280;53423;49.224;12.074;2022-12-26T12:40:50;97886.19;;;10.30;75.32
2841;BME280;53423;49.224;12.074;2022-12-26T12:43:29;97880.94;;;10.30;76.28
2841;BME280;53423;49.224;12.074;2022-12-26T12:46:05;97880.47;;;10.34;76.01
2841;BME280;53423;49.224;12.074;2022-12-26T12:48:49;97877.84;;;10.42;75.61
2841;BME280;53423;49.224;12.074;2022-12-26T12:51:27;97876.06;;;10.43;75.90
2841;BME280;53423;49.224;12.074;2022-12-26T12:54:31;97888.19;;;10.44;75.53
2841;BME280;53423;49.224;12.074;2022-12-26T12:57:08;97894.44;;;10.51;76.28
2841;BME280;53423;49.224;12.074;2022-12-26T12:59:47;97883.13;;;10.50;75.06
2841;BME280;53423;49.224;12.074;2022-12-26T13:02:24;97887.75;;;10.56;75.65
2841;BME280;53423;49.224;12.074;2022-12-26T13:05:01;97878.22;;;10.47;75.71
2841;BME280;53423;49.224;12.074;2022-12-26T13:07:36;97879.19;;;10.46;76.07
2841;BME280;53423;49.224;12.074;2022-12-26T13:10:16;97885.31;;;10.71;75.01
2841;BME280;53423;49.224;12.074;2022-12-26T13:12:46;97874.50;;;10.66;74.49
2841;BME280;53423;49.224;12.074;2022-12-26T13:15:24;97870.19;;;10.57;76.09
2841;BME280;53423;49.224;12.074;2022-12-26T13:17:57;97869.25;;;10.58;75.59
2841;BME280;53423;49.224;12.074;2022-12-26T13:20:32;97890.91;;;10.68;74.71
2841;BME280;53423;49.224;12.074;2022-12-26T13:23:05;97892.06;;;10.73;74.61
2841;BME280;53423;49.224;12.074;2022-12-26T13:26:04;97899.94;;;10.81;74.38
2841;BME280;53423;49.224;12.074;2022-12-26T13:28:38;97905.69;;;10.85;75.08
2841;BME280;53423;49.224;12.074;2022-12-26T13:31:11;97907.97;;;10.88;74.21
2841;BME280;53423;49.224;12.074;2022-12-26T13:33:41;97909.16;;;10.93;73.77
2841;BME280;53423;49.224;12.074;2022-12-26T13:36:34;97922.44;;;10.92;74.49
2841;BME280;53423;49.224;12.074;2022-12-26T13:39:36;97925.69;;;10.94;73.72
2841;BME280;53423;49.224;12.074;2022-12-26T13:42:23;97915.34;;;10.76;74.59
2841;BME280;53423;49.224;12.074;2022-12-26T13:45:47;97910.84;;;10.61;74.79
2841;BME280;53423;49.224;12.074;2022-12-26T13:51:51;97905.59;;;10.53;75.54
2841;BME280;53423;49.224;12.074;2022-12-26T13:54:21;97915.72;;;10.48;76.08
2841;BME280;53423;49.224;12.074;2022-12-26T13:57:26;97849.56;;;10.54;76.31
2841;BME280;53423;49.224;12.074;2022-12-26T14:00:18;97878.41;;;10.62;74.95
2841;BME280;53423;49.224;12.074;2022-12-26T14:03:09;97882.34;;;10.66;74.62
2841;BME280;53423;49.224;12.074;2022-12-26T14:06:15;97888.88;;;10.54;75.03
2841;BME280;53423;49.224;12.074;2022-12-26T14:09:00;97907.50;;;10.43;75.36
2841;BME280;53423;49.224;12.074;2022-12-26T14:11:41;97901.31;;;10.52;75.71
2841;BME280;53423;49.224;12.074;2022-12-26T14:14:22;97924.00;;;10.35;76.25
2841;BME280;53423;49.224;12.074;2022-12-26T14:16:57;97928.09;;;10.30;76.46